메인 페이지
METAR-TAF:

METAR-TAF

공항 :

Cocoa Beach, 플로리다, 미국

위도: 28-14N, 경도: 080-36W, 고도: 3m

현재 날씨관측

예보는 55분 전, 22:56시(UTC)에 발표되었습니다.
서남서16kt, 순간 최대 풍속 24kt
온도 30°C
습도 49%
기압 1006 hPa
시정: 16.1km
맑음

METAR: KCOF 312256Z AUTO 25016G24KT 10SM CLR 30/18 A2972 RMK AO2 PK WND 25027/25 SLP069 T02950179 $

시각: 19:51 (23:51 UTC)

예보

예보는 5 시간 51분 전, 18:00시(UTC)에 발표되었습니다.
예보 대상 시간: 31일 18시부터 01일 24시까지 (UTC)
남서16kt, 순간 최대 풍속 22kt
시정 10km 이상
고도 4500ft 상공 구름 보통
고도 20000ft 상공 구름 많음
전환 중
01일 02시부터 01일 03시까지 (UTC)
서남서15kt, 순간 최대 풍속 25kt
시정 10km 이상
고도 2200ft 상공 구름 보통
고도 4500ft 상공 구름 많음
시계 내 소나기
전환 중
01일 06시부터 01일 07시까지 (UTC)
14kt
시정 10km 이상
고도 2000ft 상공 구름 보통
고도 6000ft 상공 구름 보통
전환 중
01일 09시부터 01일 10시까지 (UTC)
서북서15kt, 순간 최대 풍속 20kt
시정 10km 이상
맑음
전환 중
01일 16시부터 01일 17시까지 (UTC)
북북서13kt
시정 10km 이상
고도 3000ft 상공 구름 조금

TAF: KCOF 311800Z 3118/0124 23016G22KT 9999 SCT045 BKN200 QNH2973INS BECMG 0102/0103 25015G25KT 9999 VCSH SCT022 BKN045 QNH2969INS BECMG 0106/0107 28014KT 9999 NSW SCT020 SCT060 QNH2967INS BECMG 0109/0110 30015G20KT 9999 SKC QNH2973INS BECMG 0116/0117 34013KT 9999 FEW030 QNH2982INS TX30/3119Z TN19/0110Z

4,000개 이상의 공항 관측 자료 및 예보 (METAR 및 TAF 보고).

지도상에서 검색 가능한 기상관측소가 노란 점과 빨간 점으로 표시되어 있습니다.

기상관측소 명을 보려면 표시 위로 마우스를 이동하세요.

날씨 관측과 예보를 보려면 클릭하세요.

지도 변경 : 확대하려면 엑스 표시가 있는 녹색 버튼, 축소하려면 빼기 표시가 있는 녹색 버튼, 다음 페이지의 지도를 보려면 녹색 화살표를 클릭하세요.


METAR-TAF: